Share

Aneth, UT

7:05 PM MDT on April 24, 2014 (GMT -0600)
Cortez Municipal (KCEZ) Elev 5915 ft | 37.31 °N, 108.63 °W | Change Station
Active Advisory: Special Statement Active Notice: Record ReportPublic Information Statement

Current weather conditions updated 12 minutes ago

Clear
Clear
62 °F
Feels Like 62 °F
N
10
Wind Variable Wind from WNW
Sunrise 6:30 AM
Sunset 8:00 PM
Moon Waning Crescent

Tomorrow is forecast to be Much Warmer than today.

Pressure 29.96 in
Visibility 10.0 miles
Clouds Clear
Dew Point -2 °F
Humidity 8%
Rainfall 0.00 in
Snow Depth Not available.
UV 1 out of 16
Pollen 8.10 out of 12
Air Quality Not available.
Flu Activity Local Activity
METAR KCEZ 250053Z AUTO 30009KT 10SM CLR 17/M19 A3004 RMK AO2 SLP146 T01671189

More Conditions Fewer Conditions

Pressure 29.96 in
Visibility 10.0 miles
Clouds Clear
Dew Point -2 °F
Humidity 8%
Rainfall 0.00 in
Snow Depth Not available.
UV 1 out of 16
Pollen 8.10 out of 12
Air Quality Not available.
Flu Activity Local Activity
METAR KCEZ 250053Z AUTO 30009KT 10SM CLR 17/M19 A3004 RMK AO2 SLP146 T01671189

More Conditions Fewer Conditions

10-Day Weather Forecast

Almanac

Astronomy

Apr. 24, 2014 Rise Set
Actual Time 6:30 AM MDT 8:00 PM MDT
Civil Twilight 6:03 AM MDT 8:27 PM MDT
Nautical Twilight 5:30 AM MDT 9:00 PM MDT
Astronomical Twilight 4:55 AM MDT 9:35 PM MDT
Moon 3:37 AM MDT (4/24) 3:25 PM MDT (4/24)
Length of Visible Light 14h 24m
Length of Day
13h 29m
Tomorrow will be 2m 8s longer.
Waning Crescent, 21% of the Moon is Illuminated
Today
Waning Crescent
Apr 29
New
May 6
First Quarter
May 14
Full
May 21
Last Quarter

Today's Extremes

State Highs State Lows

Community

  • Jone Runs Falls
    Jone Runs Falls
  • Easter in Shenandoah National Park
    Easter in Shenandoah National Park
  • Sunset at Apalachicola Bay, Florida
    Sunset at Apalachicola Bay, Florida
  • Clouds mov'n in
    Clouds mov'n in
  • Stacked
    Stacked

WunderPhotos

Upload Photos

1,704,775 photos uploaded!

Nearby

Snow Depth

Station Depth Elevation
Clayton Springs 7 in 10000 ft
Widtsoe #3 7 in 9500 ft
Black Flat-U.M. Creek 0 in 9400 ft
Agua Canyon 3 in 8900 ft
Farnsworth Lake 43 in 9600 ft

Coastal Water Temperatures

Place Temperature
No Stations Reporting

Earthquake Activity

City Distance Mag. Time & Date
No recent earthquake activity has been reported nearby.
Minimum magnitude displayed is 2.5.

Nearby Weather Stations

Station Location Temp. Dew Point Humidity Wind Precip. Elev Updated Type
MesoWest MCCRACKEN MESA , Montezuma Creek, UT 65 °F 5 °F 9% SW  at  8 mph 0.00 in / hr 5318 ft 6:00 PM MDT MADIS
HCN SAND ISLAND REC BLANDING 26 SSW UT , Bluff, UT 68 °F - - North  at  - 0.00 in / hr 4390 ft 6:30 PM MDT MADIS

Show More Stations Show Fewer Stations

What do you think?

We're not finished. Please let us know what you like, what you don't like, and what you are still missing.